createdAt,value
2019-05-26T00:02:06.622Z,2.93
2019-05-26T00:04:36.798Z,5.17
2019-05-26T00:07:07.302Z,3.53
2019-05-26T00:09:37.220Z,3.27
2019-05-26T00:12:07.325Z,3.77
2019-05-26T00:14:37.435Z,3.07
2019-05-26T00:17:07.348Z,3.03
2019-05-26T00:19:37.262Z,4.30
2019-05-26T00:22:07.372Z,4.57
2019-05-26T00:24:37.287Z,5.63
2019-05-26T00:27:07.198Z,4.33
2019-05-26T00:29:37.417Z,2.90
2019-05-26T00:32:09.686Z,4.00
2019-05-26T00:34:39.742Z,4.50
2019-05-26T00:37:09.807Z,6.37
2019-05-26T00:39:39.715Z,3.07
2019-05-26T00:42:09.930Z,3.80
2019-05-26T00:44:40.035Z,4.63
2019-05-26T00:47:10.075Z,3.13
2019-05-26T00:49:40.154Z,5.03
2019-05-26T00:52:10.523Z,4.47
2019-05-26T00:54:40.668Z,4.13
2019-05-26T00:57:10.878Z,3.37
2019-05-26T00:59:40.791Z,4.03
2019-05-26T01:02:10.804Z,3.00
2019-05-26T01:04:41.308Z,3.70
2019-05-26T01:07:11.222Z,5.60
2019-05-26T01:09:41.134Z,3.33
2019-05-26T01:12:11.052Z,5.27
2019-05-26T01:14:40.958Z,4.20
2019-05-26T01:17:11.598Z,7.77
2019-05-26T01:19:46.001Z,5.87
2019-05-26T01:22:18.197Z,3.77
2019-05-26T01:24:49.657Z,5.77
2019-05-26T01:27:19.667Z,6.03
2019-05-26T01:29:49.582Z,6.90
2019-05-26T01:32:19.599Z,4.13
2019-05-26T01:34:49.507Z,5.87
2019-05-26T01:37:20.405Z,5.10
2019-05-26T01:39:50.416Z,4.53
2019-05-26T01:42:20.328Z,6.33
2019-05-26T01:44:50.242Z,3.67
2019-05-26T01:47:20.206Z,3.97
2019-05-26T01:49:50.173Z,3.30
2019-05-26T01:52:20.081Z,4.40
2019-05-26T01:54:50.873Z,4.53
2019-05-26T01:57:20.941Z,4.30
2019-05-26T01:59:50.902Z,4.50
2019-05-26T02:02:20.925Z,5.13
2019-05-26T02:04:51.169Z,7.10
2019-05-26T02:07:21.427Z,3.90
2019-05-26T02:09:51.441Z,4.20
2019-05-26T02:12:21.357Z,3.83
2019-05-26T02:14:51.323Z,7.63
2019-05-26T02:17:22.655Z,5.97
2019-05-26T02:19:52.865Z,3.53
2019-05-26T02:22:22.778Z,8.30
2019-05-26T02:24:52.691Z,3.83
2019-05-26T02:27:22.605Z,4.93
2019-05-26T02:29:52.517Z,6.40
2019-05-26T02:32:22.312Z,5.10
2019-05-26T02:34:52.543Z,5.43
2019-05-26T02:37:22.561Z,5.67
2019-05-26T02:39:52.731Z,4.23
2019-05-26T02:42:29.492Z,4.80
2019-05-26T02:44:59.722Z,4.50
2019-05-26T02:47:29.963Z,5.73
2019-05-26T02:49:59.887Z,6.37
2019-05-26T02:52:29.827Z,4.47
2019-05-26T02:54:59.813Z,6.10
2019-05-26T02:57:29.795Z,6.13
2019-05-26T02:59:59.739Z,6.17
2019-05-26T03:02:30.534Z,5.60
2019-05-26T03:05:01.694Z,6.37
2019-05-26T03:07:34.564Z,5.47
2019-05-26T03:10:06.154Z,7.13
2019-05-26T03:12:39.300Z,6.50
2019-05-26T03:15:11.092Z,7.37
2019-05-26T03:17:43.314Z,10.73
2019-05-26T03:20:15.474Z,8.13
2019-05-26T03:22:48.419Z,8.20
2019-05-26T03:25:19.140Z,10.53
2019-05-26T03:27:49.093Z,10.40
2019-05-26T03:30:19.346Z,9.70
2019-05-26T03:32:49.281Z,10.67
2019-05-26T03:35:19.471Z,10.80
2019-05-26T03:37:49.475Z,8.97
2019-05-26T03:40:19.687Z,10.77
2019-05-26T03:42:49.611Z,10.33
2019-05-26T03:45:42.123Z,11.47
2019-05-26T03:48:12.331Z,12.27
2019-05-26T03:50:42.242Z,10.43
2019-05-26T03:53:12.365Z,11.30
2019-05-26T03:55:42.277Z,12.20
2019-05-26T03:58:12.383Z,10.90
2019-05-26T04:00:42.506Z,10.90
2019-05-26T04:03:12.503Z,11.57
2019-05-26T04:05:42.649Z,12.00
2019-05-26T04:08:12.618Z,11.53
2019-05-26T04:10:43.121Z,10.07
2019-05-26T04:13:13.433Z,10.63
2019-05-26T04:15:43.343Z,10.47
2019-05-26T04:18:13.257Z,12.07
2019-05-26T04:20:45.971Z,14.33
2019-05-26T04:23:15.053Z,13.83
2019-05-26T04:25:45.158Z,10.63
2019-05-26T04:28:15.072Z,10.40
2019-05-26T04:30:45.180Z,10.87
2019-05-26T04:33:15.214Z,10.70
2019-05-26T04:35:45.124Z,11.57
2019-05-26T04:38:15.028Z,11.90
2019-05-26T04:40:44.934Z,11.53
2019-05-26T04:43:15.475Z,12.07
2019-05-26T04:45:45.448Z,11.27
2019-05-26T04:48:15.363Z,10.00
2019-05-26T04:50:45.276Z,12.87
2019-05-26T04:53:15.190Z,13.33
2019-05-26T04:55:45.107Z,12.03
2019-05-26T04:58:15.091Z,11.87
2019-05-26T05:00:45.134Z,11.20
2019-05-26T05:03:15.039Z,14.20
2019-05-26T05:05:44.953Z,10.70
2019-05-26T05:08:14.878Z,12.03
2019-05-26T05:10:44.779Z,10.60
2019-05-26T05:13:14.890Z,17.13
2019-05-26T05:15:45.097Z,9.73
2019-05-26T05:18:15.405Z,11.17
2019-05-26T05:20:45.320Z,17.97
2019-05-26T05:23:15.286Z,10.63
2019-05-26T05:25:46.035Z,16.20
2019-05-26T05:28:15.944Z,12.97
2019-05-26T05:30:45.859Z,15.73
2019-05-26T05:33:15.871Z,14.17
2019-05-26T05:35:45.784Z,14.57
2019-05-26T05:38:15.695Z,12.83
2019-05-26T05:40:58.893Z,13.57
2019-05-26T05:43:17.291Z,14.87
2019-05-26T05:45:47.401Z,10.73
2019-05-26T05:48:17.608Z,13.67
2019-05-26T05:50:47.721Z,12.80
2019-05-26T05:53:17.833Z,14.63
2019-05-26T05:55:47.743Z,17.37
2019-05-26T05:58:17.854Z,16.97
2019-05-26T06:00:48.456Z,14.27
2019-05-26T06:03:18.939Z,14.67
2019-05-26T06:05:49.166Z,13.50
2019-05-26T06:08:19.202Z,12.00
2019-05-26T06:10:49.387Z,16.67
2019-05-26T06:13:19.596Z,12.40
2019-05-26T06:15:49.517Z,14.57
2019-05-26T06:18:19.428Z,12.77
2019-05-26T06:20:49.343Z,14.17
2019-05-26T06:23:19.248Z,14.20
2019-05-26T06:25:49.360Z,13.67
2019-05-26T06:28:19.468Z,13.77
2019-05-26T06:30:53.613Z,15.67
2019-05-26T06:33:23.635Z,19.47
2019-05-26T06:35:53.838Z,17.43
2019-05-26T06:38:24.042Z,16.97
2019-05-26T06:40:53.950Z,13.90
2019-05-26T06:43:24.070Z,12.90
2019-05-26T06:45:53.975Z,12.27
2019-05-26T06:48:26.760Z,11.63
2019-05-26T06:50:55.773Z,13.70
2019-05-26T06:53:26.178Z,14.27
2019-05-26T06:55:56.286Z,11.23
2019-05-26T06:58:26.295Z,12.57
2019-05-26T07:00:57.093Z,12.27
2019-05-26T07:03:27.202Z,11.10
2019-05-26T07:05:57.116Z,15.87
2019-05-26T07:08:27.029Z,14.43
2019-05-26T07:10:56.943Z,15.73
2019-05-26T07:13:26.859Z,12.33
2019-05-26T07:15:56.769Z,13.27
2019-05-26T07:18:26.683Z,12.67
2019-05-26T07:20:56.596Z,14.37
2019-05-26T07:23:26.706Z,13.33
2019-05-26T07:25:56.635Z,12.20
2019-05-26T07:28:26.537Z,11.93
2019-05-26T07:30:56.451Z,14.73
2019-05-26T07:33:26.659Z,12.77
2019-05-26T07:35:56.568Z,10.90
2019-05-26T07:38:26.550Z,11.43
2019-05-26T07:40:56.692Z,13.63
2019-05-26T07:43:28.173Z,13.00
2019-05-26T07:45:58.582Z,10.93
2019-05-26T07:48:28.691Z,10.23
2019-05-26T07:50:58.761Z,13.40
2019-05-26T07:53:28.715Z,10.20
2019-05-26T07:55:58.628Z,11.63
2019-05-26T07:58:28.543Z,11.00
2019-05-26T08:00:58.458Z,11.93
2019-05-26T08:03:30.337Z,12.13
2019-05-26T08:06:00.248Z,12.53
2019-05-26T08:08:30.162Z,12.73
2019-05-26T08:11:00.074Z,13.67
2019-05-26T08:13:29.990Z,10.60
2019-05-26T08:16:00.004Z,11.93
2019-05-26T08:18:29.915Z,11.37
2019-05-26T08:20:59.837Z,14.47
2019-05-26T08:23:29.938Z,11.57
2019-05-26T08:26:00.049Z,10.53
2019-05-26T08:28:29.963Z,12.87
2019-05-26T08:30:59.875Z,12.97
2019-05-26T08:33:29.788Z,11.43
2019-05-26T08:35:59.799Z,12.50
2019-05-26T08:38:30.136Z,11.20
2019-05-26T08:41:01.527Z,9.60
2019-05-26T08:43:32.848Z,9.87
2019-05-26T08:46:02.799Z,12.40
2019-05-26T08:48:32.905Z,12.10
2019-05-26T08:51:03.805Z,12.10
2019-05-26T08:53:33.716Z,13.93
2019-05-26T08:56:03.825Z,12.07
2019-05-26T08:58:33.740Z,13.83
2019-05-26T09:01:03.696Z,11.00
2019-05-26T09:03:33.666Z,10.50
2019-05-26T09:06:03.972Z,14.40
2019-05-26T09:08:34.083Z,12.27
2019-05-26T09:11:04.191Z,11.00
2019-05-26T09:13:34.203Z,11.73
2019-05-26T09:16:04.115Z,8.57
2019-05-26T09:18:34.029Z,9.53
2019-05-26T09:21:03.943Z,14.43
2019-05-26T09:23:34.053Z,10.90
2019-05-26T09:26:04.262Z,10.77
2019-05-26T09:28:34.174Z,13.27
2019-05-26T09:31:04.382Z,13.37
2019-05-26T09:33:34.300Z,9.70
2019-05-26T09:36:05.382Z,9.97
2019-05-26T09:38:38.059Z,8.33
2019-05-26T09:41:08.272Z,9.87
2019-05-26T09:43:38.177Z,10.30
2019-05-26T09:46:08.090Z,9.90
2019-05-26T09:48:38.006Z,11.23
2019-05-26T09:51:07.917Z,10.60
2019-05-26T09:53:37.831Z,9.90
2019-05-26T09:56:08.042Z,13.80
2019-05-26T09:58:37.952Z,11.80
2019-05-26T10:01:07.868Z,8.77
2019-05-26T10:03:37.782Z,11.80
2019-05-26T10:06:07.791Z,10.50
2019-05-26T10:08:38.484Z,10.93
2019-05-26T10:11:09.589Z,8.27
2019-05-26T10:13:39.496Z,9.67
2019-05-26T10:16:09.902Z,10.23
2019-05-26T10:18:40.110Z,13.93
2019-05-26T10:21:10.029Z,13.40
2019-05-26T10:23:39.944Z,9.60
2019-05-26T10:26:09.850Z,12.70
2019-05-26T10:28:39.763Z,10.40
2019-05-26T10:31:09.776Z,10.10
2019-05-26T10:33:40.899Z,11.17
2019-05-26T10:36:10.945Z,12.70
2019-05-26T10:38:40.892Z,10.97
2019-05-26T10:41:10.805Z,10.53
2019-05-26T10:43:47.444Z,7.77
2019-05-26T10:46:12.795Z,11.03
2019-05-26T10:48:42.710Z,8.17
2019-05-26T10:51:12.717Z,9.10
2019-05-26T10:53:42.740Z,10.60
2019-05-26T10:56:12.648Z,11.37
2019-05-26T10:58:51.139Z,10.17
2019-05-26T11:01:21.221Z,8.30
2019-05-26T11:03:51.137Z,9.83
2019-05-26T11:06:21.048Z,10.03
2019-05-26T11:08:50.960Z,10.87
2019-05-26T11:11:20.872Z,9.77
2019-05-26T11:14:02.417Z,11.60
2019-05-26T11:16:22.568Z,11.50
2019-05-26T11:18:52.677Z,10.10
2019-05-26T11:21:22.689Z,7.60
2019-05-26T11:23:52.612Z,8.83
2019-05-26T11:26:22.614Z,13.90
2019-05-26T11:28:54.297Z,14.30
2019-05-26T11:31:24.211Z,9.43
2019-05-26T11:33:54.136Z,7.93
2019-05-26T11:36:24.239Z,11.97
2019-05-26T11:38:54.149Z,13.07
2019-05-26T11:41:24.063Z,10.33
2019-05-26T11:43:53.975Z,10.80
2019-05-26T11:46:23.888Z,12.33
2019-05-26T11:48:53.965Z,12.63
2019-05-26T11:51:25.538Z,13.93
2019-05-26T11:53:55.594Z,12.63
2019-05-26T11:56:25.507Z,16.40
2019-05-26T11:58:55.715Z,14.17
2019-05-26T12:01:29.380Z,9.80
2019-05-26T12:03:59.278Z,12.43
2019-05-26T12:06:30.490Z,9.20
2019-05-26T12:09:01.720Z,12.13
2019-05-26T12:11:32.577Z,10.80
2019-05-26T12:14:03.763Z,7.37
2019-05-26T12:16:35.328Z,8.87
2019-05-26T12:19:07.268Z,9.27
2019-05-26T12:21:39.216Z,12.23
2019-05-26T12:24:10.583Z,11.07
2019-05-26T12:26:42.216Z,9.63
2019-05-26T12:29:13.679Z,9.83
2019-05-26T12:31:46.267Z,10.30
2019-05-26T12:34:18.219Z,8.10
2019-05-26T12:36:49.378Z,9.80
2019-05-26T12:39:19.937Z,9.33
2019-05-26T12:41:51.350Z,12.67
2019-05-26T12:44:22.452Z,8.87
2019-05-26T12:46:53.561Z,10.70
2019-05-26T12:49:27.707Z,9.53
2019-05-26T12:51:58.383Z,8.07
2019-05-26T12:54:29.601Z,7.23
2019-05-26T12:57:00.531Z,7.73
2019-05-26T12:59:33.553Z,7.40
2019-05-26T13:02:06.138Z,9.10
2019-05-26T13:04:36.822Z,9.30
2019-05-26T13:07:07.325Z,9.57
2019-05-26T13:09:38.221Z,7.00
2019-05-26T13:12:08.284Z,7.30
2019-05-26T13:14:38.235Z,7.90
2019-05-26T13:17:08.148Z,5.97
2019-05-26T13:19:38.160Z,9.10
2019-05-26T13:22:08.422Z,6.27
2019-05-26T13:24:39.164Z,8.13
2019-05-26T13:27:09.962Z,6.97
2019-05-26T13:29:40.281Z,8.03
2019-05-26T13:32:10.381Z,6.03
2019-05-26T13:34:40.294Z,6.63
2019-05-26T13:37:10.315Z,6.10
2019-05-26T13:39:40.415Z,6.70
2019-05-26T13:42:10.330Z,5.00
2019-05-26T13:44:40.541Z,5.77
2019-05-26T13:47:25.097Z,5.87
2019-05-26T13:49:42.232Z,6.20
2019-05-26T13:52:12.243Z,7.17
2019-05-26T13:54:42.254Z,6.83
2019-05-26T13:57:12.167Z,6.60
2019-05-26T13:59:42.183Z,5.83
2019-05-26T14:02:12.098Z,6.07
2019-05-26T14:04:42.256Z,5.10
2019-05-26T14:07:12.215Z,5.40
2019-05-26T14:09:42.724Z,6.83
2019-05-26T14:12:13.023Z,6.90
2019-05-26T14:14:43.412Z,7.10
2019-05-26T14:17:15.184Z,5.10
2019-05-26T14:19:48.957Z,5.33
2019-05-26T14:22:19.067Z,6.47
2019-05-26T14:24:53.840Z,6.13
2019-05-26T14:27:21.254Z,6.13
2019-05-26T14:29:51.363Z,6.40
2019-05-26T14:32:21.571Z,6.60
2019-05-26T14:34:51.680Z,5.57
2019-05-26T14:37:22.214Z,6.43
2019-05-26T14:39:52.195Z,4.90
2019-05-26T14:42:22.109Z,7.60
2019-05-26T14:44:52.021Z,6.50
2019-05-26T14:47:22.038Z,4.80
2019-05-26T14:49:51.950Z,6.10
2019-05-26T14:52:21.966Z,4.40
2019-05-26T14:54:51.972Z,5.03
2019-05-26T14:57:21.883Z,5.13
2019-05-26T14:59:51.798Z,5.47
2019-05-26T15:02:21.710Z,5.10
2019-05-26T15:04:51.742Z,5.03
2019-05-26T15:07:21.734Z,5.03
2019-05-26T15:09:51.745Z,5.70
2019-05-26T15:12:21.892Z,5.30
2019-05-26T15:14:52.160Z,5.13
2019-05-26T15:17:22.119Z,4.27
2019-05-26T15:19:52.085Z,4.77
2019-05-26T15:22:22.194Z,4.07
2019-05-26T15:24:52.108Z,3.70
2019-05-26T15:27:22.028Z,5.50
2019-05-26T15:29:51.935Z,4.93
2019-05-26T15:32:22.169Z,4.70
2019-05-26T15:34:52.156Z,4.07
2019-05-26T15:37:22.268Z,3.53
2019-05-26T15:39:52.179Z,4.47
2019-05-26T15:42:22.193Z,2.90
2019-05-26T15:44:52.106Z,4.67
2019-05-26T15:47:22.096Z,4.93
2019-05-26T15:49:52.028Z,4.60
2019-05-26T15:52:22.236Z,3.47
2019-05-26T15:54:52.154Z,4.20
2019-05-26T15:57:22.065Z,3.27
2019-05-26T15:59:54.495Z,3.90
2019-05-26T16:02:23.662Z,4.37
2019-05-26T16:04:53.573Z,4.23
2019-05-26T16:07:23.486Z,4.00
2019-05-26T16:09:53.403Z,4.70
2019-05-26T16:12:23.312Z,4.87
2019-05-26T16:14:53.325Z,4.13
2019-05-26T16:17:23.237Z,4.17
2019-05-26T16:19:53.150Z,4.47
2019-05-26T16:22:23.358Z,3.73
2019-05-26T16:24:53.272Z,3.37
2019-05-26T16:27:23.186Z,4.63
2019-05-26T16:29:53.295Z,5.07
2019-05-26T16:32:23.402Z,4.07
2019-05-26T16:34:53.320Z,3.80
2019-05-26T16:37:23.239Z,3.90
2019-05-26T16:39:55.898Z,4.53
2019-05-26T16:42:25.322Z,5.23
2019-05-26T16:44:55.453Z,4.03
2019-05-26T16:47:25.541Z,3.73
2019-05-26T16:49:55.558Z,5.20
2019-05-26T16:52:25.760Z,6.40
2019-05-26T16:54:55.673Z,4.63
2019-05-26T16:57:25.785Z,4.47
2019-05-26T16:59:55.793Z,3.47
2019-05-26T17:02:25.933Z,4.20
2019-05-26T17:04:56.077Z,5.30
2019-05-26T17:07:25.928Z,6.00
2019-05-26T17:09:55.840Z,4.67
2019-05-26T17:12:25.856Z,4.67
2019-05-26T17:14:56.578Z,3.97
2019-05-26T17:17:26.565Z,5.93
2019-05-26T17:19:56.475Z,4.50
2019-05-26T17:22:26.388Z,5.63
2019-05-26T17:24:59.725Z,4.07
2019-05-26T17:27:27.992Z,3.57
2019-05-26T17:29:57.900Z,3.97
2019-05-26T17:32:27.839Z,4.60
2019-05-26T17:34:57.626Z,4.27
2019-05-26T17:37:27.541Z,4.90
2019-05-26T17:39:57.551Z,5.90
2019-05-26T17:42:27.564Z,8.17
2019-05-26T17:44:58.264Z,3.27
2019-05-26T17:47:30.799Z,3.83
2019-05-26T17:50:00.056Z,5.27
2019-05-26T17:52:30.126Z,4.63
2019-05-26T17:55:00.179Z,3.73
2019-05-26T17:57:30.094Z,3.73
2019-05-26T18:00:00.396Z,3.60
2019-05-26T18:02:30.606Z,3.87
2019-05-26T18:05:00.807Z,4.53
2019-05-26T18:07:30.743Z,3.37
2019-05-26T18:10:00.836Z,4.50
2019-05-26T18:12:30.759Z,4.07
2019-05-26T18:15:00.970Z,4.27
2019-05-26T18:17:45.852Z,4.67
2019-05-26T18:20:02.902Z,4.83
2019-05-26T18:22:32.983Z,4.00
2019-05-26T18:25:03.763Z,4.63
2019-05-26T18:27:34.081Z,3.93
2019-05-26T18:30:05.167Z,3.77
2019-05-26T18:32:35.169Z,4.83
2019-05-26T18:35:07.827Z,6.67
2019-05-26T18:37:37.751Z,4.40
2019-05-26T18:40:09.176Z,6.13
2019-05-26T18:42:39.183Z,5.33
2019-05-26T18:45:10.145Z,5.47
2019-05-26T18:47:40.154Z,5.13
2019-05-26T18:50:10.348Z,6.50
2019-05-26T18:52:40.571Z,4.23
2019-05-26T18:55:11.074Z,4.27
2019-05-26T18:57:40.989Z,6.87
2019-05-26T19:00:12.775Z,7.73
2019-05-26T19:02:42.778Z,5.70
2019-05-26T19:05:13.383Z,6.60
2019-05-26T19:07:43.391Z,5.33
2019-05-26T19:10:14.617Z,6.53
2019-05-26T19:12:44.597Z,4.70
2019-05-26T19:15:15.719Z,6.73
2019-05-26T19:17:45.896Z,5.10
2019-05-26T19:20:17.597Z,5.17
2019-05-26T19:22:47.588Z,5.10
2019-05-26T19:25:17.898Z,6.13
2019-05-26T19:27:47.923Z,4.53
2019-05-26T19:30:18.019Z,6.73
2019-05-26T19:32:48.757Z,5.00
2019-05-26T19:35:18.733Z,5.53
2019-05-26T19:37:49.115Z,4.63
2019-05-26T19:40:19.641Z,5.97
2019-05-26T19:42:49.849Z,4.23
2019-05-26T19:45:20.054Z,4.13
2019-05-26T19:47:49.968Z,9.07
2019-05-26T19:50:19.913Z,4.23
2019-05-26T19:52:50.341Z,7.43
2019-05-26T19:55:20.396Z,4.60
2019-05-26T19:57:50.338Z,5.87
2019-05-26T20:00:21.214Z,6.63
2019-05-26T20:02:51.117Z,6.30
2019-05-26T20:05:21.184Z,6.00
2019-05-26T20:07:51.140Z,5.90
2019-05-26T20:10:21.427Z,6.33
2019-05-26T20:12:51.657Z,6.47
2019-05-26T20:15:22.345Z,5.17
2019-05-26T20:17:52.283Z,6.90
2019-05-26T20:20:22.635Z,13.70
2019-05-26T20:22:52.739Z,9.13
2019-05-26T20:25:22.794Z,6.50
2019-05-26T20:27:52.867Z,5.73
2019-05-26T20:30:23.683Z,5.37
2019-05-26T20:32:53.918Z,5.60
2019-05-26T20:35:24.273Z,5.40
2019-05-26T20:37:54.334Z,5.70
2019-05-26T20:40:24.243Z,5.60
2019-05-26T20:42:54.253Z,6.40
2019-05-26T20:45:24.362Z,6.23
2019-05-26T20:47:54.571Z,5.23
2019-05-26T20:50:28.970Z,5.37
2019-05-26T20:52:56.278Z,5.43
2019-05-26T20:55:26.474Z,4.70
2019-05-26T20:57:56.687Z,3.13
2019-05-26T21:00:27.285Z,4.20
2019-05-26T21:02:57.296Z,2.67
2019-05-26T21:05:27.606Z,4.87
2019-05-26T21:07:57.908Z,2.57
2019-05-26T21:10:28.004Z,3.07
2019-05-26T21:12:57.937Z,3.10
2019-05-26T21:15:27.892Z,3.77
2019-05-26T21:17:57.857Z,4.03
2019-05-26T21:20:27.873Z,2.47
2019-05-26T21:22:58.079Z,3.00
2019-05-26T21:25:27.990Z,2.07
2019-05-26T21:27:57.904Z,4.00
2019-05-26T21:30:27.923Z,3.33
2019-05-26T21:32:58.224Z,3.13
2019-05-26T21:35:28.135Z,2.90
2019-05-26T21:37:58.052Z,3.20
2019-05-26T21:40:28.261Z,2.87
2019-05-26T21:42:58.283Z,2.27
2019-05-26T21:45:28.182Z,3.57
2019-05-26T21:47:58.590Z,3.50
2019-05-26T21:50:28.896Z,4.77
2019-05-26T21:52:59.889Z,3.47
2019-05-26T21:55:30.202Z,2.47
2019-05-26T21:58:00.000Z,3.27
2019-05-26T22:00:32.166Z,2.60
2019-05-26T22:03:02.099Z,2.77
2019-05-26T22:05:32.153Z,2.57
2019-05-26T22:08:02.220Z,2.40
2019-05-26T22:10:32.247Z,2.73
2019-05-26T22:13:02.344Z,4.93
2019-05-26T22:15:32.371Z,3.20
2019-05-26T22:18:02.567Z,2.20
2019-05-26T22:20:33.488Z,2.17
2019-05-26T22:23:03.670Z,3.50
2019-05-26T22:25:33.676Z,4.60
2019-05-26T22:28:03.550Z,2.13
2019-05-26T22:30:33.523Z,3.33
2019-05-26T22:33:03.619Z,3.67
2019-05-26T22:35:33.923Z,2.97
2019-05-26T22:38:03.880Z,2.83
2019-05-26T22:40:34.139Z,2.83
2019-05-26T22:43:04.449Z,2.90
2019-05-26T22:45:34.368Z,2.73
2019-05-26T22:48:04.276Z,1.97
2019-05-26T22:50:34.193Z,2.20
2019-05-26T22:53:04.493Z,2.43
2019-05-26T22:55:35.391Z,3.60
2019-05-26T22:58:05.401Z,2.60
2019-05-26T23:00:35.315Z,2.10
2019-05-26T23:03:05.524Z,2.10
2019-05-26T23:05:35.579Z,1.60
2019-05-26T23:08:05.843Z,2.67
2019-05-26T23:10:36.048Z,3.53
2019-05-26T23:13:06.085Z,3.17
2019-05-26T23:15:36.171Z,1.93
2019-05-26T23:18:06.378Z,1.53
2019-05-26T23:20:36.293Z,1.80
2019-05-26T23:23:06.204Z,1.93
2019-05-26T23:25:36.316Z,1.47
2019-05-26T23:28:06.230Z,3.17
2019-05-26T23:30:36.240Z,1.87
2019-05-26T23:33:06.547Z,1.40
2019-05-26T23:35:36.460Z,1.93
2019-05-26T23:38:06.373Z,1.70
2019-05-26T23:40:36.288Z,1.63
2019-05-26T23:43:06.920Z,1.57
2019-05-26T23:45:37.096Z,2.90
2019-05-26T23:48:07.010Z,2.03
2019-05-26T23:50:36.911Z,3.60
2019-05-26T23:53:07.328Z,2.27
2019-05-26T23:55:37.438Z,2.13
2019-05-26T23:58:07.352Z,2.40
